createdAt,value
2022-10-12T00:01:47.573Z,13.00
2022-10-12T00:04:49.151Z,13.02
2022-10-12T00:07:50.656Z,13.03
2022-10-12T00:10:52.161Z,13.05
2022-10-12T00:13:54.287Z,12.97
2022-10-12T00:16:55.769Z,12.97
2022-10-12T00:19:57.272Z,12.99
2022-10-12T00:22:58.792Z,13.01
2022-10-12T00:26:05.172Z,13.01
2022-10-12T00:29:06.779Z,13.00
2022-10-12T00:32:08.400Z,12.94
2022-10-12T00:35:09.943Z,12.95
2022-10-12T00:38:11.927Z,12.90
2022-10-12T00:41:15.265Z,12.89
2022-10-12T00:44:35.318Z,12.85
2022-10-12T00:47:40.625Z,12.80
2022-10-12T00:50:42.504Z,12.75
2022-10-12T00:53:50.700Z,12.63
2022-10-12T00:56:54.495Z,12.43
2022-10-12T01:00:00.585Z,12.51
2022-10-12T01:03:02.547Z,12.57
2022-10-12T01:06:05.781Z,12.62
2022-10-12T01:09:07.280Z,12.69
2022-10-12T01:12:09.925Z,12.73
2022-10-12T01:15:12.013Z,12.74
2022-10-12T01:18:21.822Z,12.73
2022-10-12T01:21:24.271Z,12.69
2022-10-12T01:24:44.461Z,12.68
2022-10-12T01:27:49.864Z,12.66
2022-10-12T01:31:00.260Z,12.64
2022-10-12T01:34:34.369Z,12.58
2022-10-12T01:37:41.609Z,12.49
2022-10-12T01:41:20.809Z,12.43
2022-10-12T01:44:23.523Z,12.49
2022-10-12T01:47:25.053Z,12.47
2022-10-12T01:50:38.480Z,12.17
2022-10-12T01:53:56.263Z,11.99
2022-10-12T01:57:01.951Z,11.96
2022-10-12T02:00:08.298Z,12.01
2022-10-12T02:03:21.707Z,12.05
2022-10-12T02:06:47.840Z,12.18
2022-10-12T02:09:53.544Z,12.19
2022-10-12T02:12:58.334Z,12.25
2022-10-12T02:16:03.955Z,12.17
2022-10-12T02:19:09.476Z,12.17
2022-10-12T02:22:13.092Z,12.05
2022-10-12T02:25:18.762Z,11.96
2022-10-12T02:28:24.148Z,11.92
2022-10-12T02:31:37.925Z,11.98
2022-10-12T02:34:55.505Z,12.03
2022-10-12T02:38:06.047Z,12.07
2022-10-12T02:41:16.874Z,12.17
2022-10-12T02:44:27.489Z,12.13
2022-10-12T02:47:32.528Z,12.12
2022-10-12T02:50:34.599Z,12.09
2022-10-12T02:53:36.420Z,12.06
2022-10-12T02:56:47.439Z,12.04
2022-10-12T02:59:49.022Z,11.82
2022-10-12T03:02:50.569Z,11.68
2022-10-12T03:05:52.870Z,11.56
2022-10-12T03:08:56.986Z,11.53
2022-10-12T03:11:58.388Z,11.51
2022-10-12T03:15:02.607Z,11.56
2022-10-12T03:18:04.308Z,11.57
2022-10-12T03:21:05.999Z,11.44
2022-10-12T03:24:07.670Z,11.38
2022-10-12T03:27:09.149Z,11.43
2022-10-12T03:35:10.113Z,11.30
2022-10-12T03:38:12.620Z,11.30
2022-10-12T03:41:14.117Z,11.25
2022-10-12T03:44:15.695Z,11.26
2022-10-12T03:47:17.237Z,11.26
2022-10-12T03:50:18.913Z,11.22
2022-10-12T03:53:20.991Z,11.14
2022-10-12T03:56:22.467Z,11.10
2022-10-12T03:59:23.984Z,11.06
2022-10-12T04:02:25.603Z,11.05
2022-10-12T04:05:27.179Z,11.05
2022-10-12T04:08:28.790Z,11.03
2022-10-12T04:11:30.340Z,10.99
2022-10-12T04:14:31.858Z,11.01
2022-10-12T04:17:33.412Z,11.01
2022-10-12T04:20:34.876Z,10.98
2022-10-12T04:23:36.411Z,10.91
2022-10-12T04:26:37.915Z,11.01
2022-10-12T04:29:39.399Z,11.02
2022-10-12T04:32:40.896Z,11.04
2022-10-12T04:35:42.443Z,11.03
2022-10-12T04:38:43.900Z,11.00
2022-10-12T04:41:45.343Z,11.02
2022-10-12T04:44:46.803Z,11.03
2022-10-12T04:47:48.596Z,11.02
2022-10-12T04:50:50.245Z,11.05
2022-10-12T04:53:51.869Z,10.96
2022-10-12T04:56:53.674Z,10.98
2022-10-12T04:59:55.321Z,10.98
2022-10-12T05:02:56.767Z,10.93
2022-10-12T05:05:58.296Z,10.93
2022-10-12T05:08:59.906Z,10.93
2022-10-12T05:12:01.404Z,10.93
2022-10-12T05:15:03.020Z,10.91
2022-10-12T05:18:04.769Z,10.83
2022-10-12T05:21:53.551Z,10.89
2022-10-12T05:25:20.605Z,10.86
2022-10-12T05:28:22.722Z,10.78
2022-10-12T05:31:24.277Z,10.85
2022-10-12T05:34:25.789Z,10.84
2022-10-12T05:37:27.316Z,10.89
2022-10-12T05:40:28.809Z,10.92
2022-10-12T05:43:30.342Z,10.94
2022-10-12T05:46:31.827Z,10.94
2022-10-12T05:49:33.433Z,10.91
2022-10-12T05:52:35.512Z,10.92
2022-10-12T05:55:37.288Z,10.96
2022-10-12T05:58:38.724Z,11.00
2022-10-12T06:01:40.376Z,10.98
2022-10-12T06:04:42.255Z,10.98
2022-10-12T06:07:43.933Z,11.07
2022-10-12T06:10:47.241Z,11.12
2022-10-12T06:13:48.879Z,11.20
2022-10-12T06:16:53.809Z,11.26
2022-10-12T06:19:56.235Z,11.29
2022-10-12T06:22:57.699Z,11.39
2022-10-12T06:25:59.114Z,11.45
2022-10-12T06:29:00.901Z,11.61
2022-10-12T06:32:02.509Z,11.65
2022-10-12T06:35:04.621Z,11.74
2022-10-12T06:38:06.306Z,11.84
2022-10-12T06:41:10.519Z,11.86
2022-10-12T06:44:12.054Z,11.93
2022-10-12T06:47:13.632Z,11.99
2022-10-12T06:50:15.181Z,12.02
2022-10-12T06:53:16.960Z,12.09
2022-10-12T06:56:18.397Z,12.17
2022-10-12T06:59:19.964Z,12.30
2022-10-12T07:02:21.427Z,12.41
2022-10-12T07:05:23.983Z,12.43
2022-10-12T07:08:25.427Z,12.52
2022-10-12T07:11:27.030Z,12.63
2022-10-12T07:14:28.461Z,12.74
2022-10-12T07:17:29.911Z,12.84
2022-10-12T07:20:32.916Z,12.89
2022-10-12T07:23:34.880Z,12.86
2022-10-12T07:26:36.396Z,12.90
2022-10-12T07:29:38.875Z,12.90
2022-10-12T07:32:40.464Z,12.89
2022-10-12T07:36:10.587Z,12.90
2022-10-12T07:39:06.644Z,12.90
2022-10-12T07:42:08.105Z,12.94
2022-10-12T07:45:09.744Z,13.02
2022-10-12T07:48:11.728Z,13.00
2022-10-12T07:51:13.226Z,13.09
2022-10-12T07:54:19.798Z,13.15
2022-10-12T07:57:21.992Z,13.09
2022-10-12T08:00:23.503Z,13.18
2022-10-12T08:03:25.093Z,13.23
2022-10-12T08:06:29.024Z,13.31
2022-10-12T08:09:30.525Z,13.38
2022-10-12T08:12:32.125Z,13.37
2022-10-12T08:15:33.643Z,13.41
2022-10-12T08:18:38.237Z,13.49
2022-10-12T08:21:41.222Z,13.57
2022-10-12T08:24:43.636Z,13.70
2022-10-12T08:27:45.305Z,13.78
2022-10-12T08:30:46.809Z,13.80
2022-10-12T08:33:48.253Z,13.92
2022-10-12T08:36:51.741Z,13.89
2022-10-12T08:39:53.288Z,13.92
2022-10-12T08:43:25.131Z,13.97
2022-10-12T08:46:27.245Z,14.10
2022-10-12T08:49:32.104Z,14.07
2022-10-12T08:52:56.403Z,14.15
2022-10-12T08:55:59.037Z,14.20
2022-10-12T08:59:02.185Z,14.24
2022-10-12T09:02:25.367Z,14.40
2022-10-12T09:05:34.291Z,14.57
2022-10-12T09:09:14.279Z,14.63
2022-10-12T09:12:37.128Z,14.69
2022-10-12T09:15:53.731Z,14.70
2022-10-12T09:19:00.928Z,14.68
2022-10-12T09:22:04.496Z,14.79
2022-10-12T09:25:11.766Z,14.88
2022-10-12T09:28:19.124Z,14.83
2022-10-12T09:31:55.789Z,14.83
2022-10-12T09:34:58.911Z,14.92
2022-10-12T09:38:01.316Z,14.93
2022-10-12T09:41:03.022Z,14.93
2022-10-12T09:44:06.936Z,15.00
2022-10-12T09:47:28.883Z,15.06
2022-10-12T09:50:47.893Z,15.01
2022-10-12T09:53:55.365Z,15.05
2022-10-12T09:56:59.016Z,15.13
2022-10-12T10:00:06.000Z,15.24
2022-10-12T10:03:29.186Z,15.31
2022-10-12T10:06:33.250Z,15.29
2022-10-12T10:09:35.529Z,15.30
2022-10-12T10:12:44.338Z,15.46
2022-10-12T10:15:49.758Z,15.53
2022-10-12T10:18:54.294Z,15.50
2022-10-12T10:21:55.951Z,15.63
2022-10-12T10:25:00.672Z,15.58
2022-10-12T10:28:28.335Z,15.51
2022-10-12T10:31:30.174Z,15.58
2022-10-12T10:34:31.678Z,15.57
2022-10-12T10:37:33.740Z,15.53
2022-10-12T10:40:35.476Z,15.56
2022-10-12T10:43:37.044Z,15.63
2022-10-12T10:46:38.552Z,15.68
2022-10-12T10:49:45.685Z,15.77
2022-10-12T10:53:02.767Z,15.95
2022-10-12T10:56:29.676Z,16.17
2022-10-12T10:59:47.381Z,16.30
2022-10-12T11:02:57.972Z,16.32
2022-10-12T11:06:23.305Z,16.36
2022-10-12T11:09:30.069Z,16.37
2022-10-12T11:12:38.257Z,16.37
2022-10-12T11:15:45.641Z,16.53
2022-10-12T11:18:59.861Z,16.66
2022-10-12T11:22:08.850Z,16.78
2022-10-12T11:25:38.403Z,16.82
2022-10-12T11:28:40.566Z,16.74
2022-10-12T11:32:03.195Z,16.85
2022-10-12T11:35:07.714Z,16.85
2022-10-12T11:38:15.384Z,17.08
2022-10-12T11:41:35.436Z,17.19
2022-10-12T11:44:46.931Z,17.03
2022-10-12T11:47:53.911Z,17.29
2022-10-12T11:51:01.422Z,17.60
2022-10-12T11:54:21.949Z,17.59
2022-10-12T11:57:31.418Z,17.43
2022-10-12T12:00:41.026Z,17.49
2022-10-12T12:03:45.584Z,17.38
2022-10-12T12:07:29.467Z,17.18
2022-10-12T12:10:34.936Z,17.11
2022-10-12T12:13:36.587Z,17.22
2022-10-12T12:16:43.132Z,17.20
2022-10-12T12:19:51.113Z,17.16
2022-10-12T12:22:54.884Z,17.21
2022-10-12T12:26:16.068Z,17.31
2022-10-12T12:29:27.853Z,17.47
2022-10-12T12:32:43.901Z,17.55
2022-10-12T12:36:24.481Z,17.55
2022-10-12T12:39:42.469Z,17.86
2022-10-12T12:42:44.130Z,17.97
2022-10-12T12:45:57.503Z,18.05
2022-10-12T12:49:00.444Z,17.73
2022-10-12T12:52:02.249Z,17.49
2022-10-12T12:55:29.162Z,17.56
2022-10-12T12:58:48.184Z,17.61
2022-10-12T13:02:11.079Z,17.66
2022-10-12T13:05:15.597Z,17.63
2022-10-12T13:08:42.142Z,17.62
2022-10-12T13:17:23.528Z,17.43
2022-10-12T13:19:56.573Z,17.45
2022-10-12T13:23:02.836Z,17.39
2022-10-12T13:26:09.806Z,17.50
2022-10-12T13:29:35.038Z,17.47
2022-10-12T13:32:51.199Z,17.56
2022-10-12T13:36:05.541Z,17.64
2022-10-12T13:39:15.325Z,17.81
2022-10-12T13:42:23.467Z,17.88
2022-10-12T13:45:25.254Z,17.75
2022-10-12T13:48:53.895Z,17.93
2022-10-12T13:52:00.396Z,18.05
2022-10-12T13:55:17.743Z,18.19
2022-10-12T13:58:27.467Z,18.24
2022-10-12T14:01:29.039Z,18.24
2022-10-12T14:04:32.786Z,18.46
2022-10-12T14:07:41.572Z,18.57
2022-10-12T14:10:48.477Z,18.66
2022-10-12T14:13:50.860Z,18.75
2022-10-12T14:16:52.589Z,18.78
2022-10-12T14:19:55.664Z,18.69
2022-10-12T14:22:59.696Z,18.76
2022-10-12T14:26:01.064Z,18.98
2022-10-12T14:29:41.478Z,19.86
2022-10-12T14:32:44.366Z,21.21
2022-10-12T14:35:48.151Z,22.30
2022-10-12T14:38:52.032Z,22.54
2022-10-12T14:41:53.953Z,21.22
2022-10-12T14:44:56.096Z,20.18
2022-10-12T14:47:59.750Z,19.51
2022-10-12T14:51:01.279Z,19.38
2022-10-12T14:54:04.663Z,19.23
2022-10-12T14:57:15.222Z,19.10
2022-10-12T15:00:30.789Z,19.06
2022-10-12T15:03:32.409Z,18.62
2022-10-12T15:06:33.939Z,18.63
2022-10-12T15:09:35.413Z,18.59
2022-10-12T15:12:36.921Z,18.69
2022-10-12T15:15:42.429Z,18.72
2022-10-12T15:18:43.977Z,18.67
2022-10-12T15:21:45.611Z,18.66
2022-10-12T15:24:47.522Z,18.62
2022-10-12T15:27:49.064Z,18.53
2022-10-12T15:31:16.591Z,18.67
2022-10-12T15:34:15.020Z,18.90
2022-10-12T15:37:16.862Z,19.22
2022-10-12T15:40:20.491Z,19.93
2022-10-12T15:43:21.983Z,20.25
2022-10-12T15:46:23.456Z,20.37
2022-10-12T15:49:25.036Z,20.05
2022-10-12T15:52:26.774Z,19.16
2022-10-12T15:55:30.145Z,18.33
2022-10-12T15:58:31.651Z,17.96
2022-10-12T16:01:35.456Z,17.80
2022-10-12T16:04:36.881Z,17.66
2022-10-12T16:07:38.380Z,17.51
2022-10-12T16:10:41.416Z,17.31
2022-10-12T16:13:49.983Z,17.20
2022-10-12T16:16:54.069Z,17.09
2022-10-12T16:19:55.518Z,16.94
2022-10-12T16:22:57.648Z,16.79
2022-10-12T16:26:01.700Z,16.69
2022-10-12T16:29:03.115Z,16.52
2022-10-12T16:32:04.894Z,16.34
2022-10-12T16:35:06.854Z,16.16
2022-10-12T16:38:09.363Z,15.94
2022-10-12T16:41:12.964Z,15.83
2022-10-12T16:44:14.468Z,15.67
2022-10-12T16:47:16.347Z,15.54
2022-10-12T16:50:18.896Z,15.37
2022-10-12T16:53:20.545Z,15.12
2022-10-12T16:56:22.056Z,15.02
2022-10-12T16:59:24.251Z,14.87
2022-10-12T17:02:27.364Z,14.70
2022-10-12T17:05:28.939Z,14.58
2022-10-12T17:08:38.984Z,14.47
2022-10-12T17:11:40.911Z,14.28
2022-10-12T17:14:42.491Z,14.22
2022-10-12T17:17:44.028Z,14.16
2022-10-12T17:20:47.235Z,14.06
2022-10-12T17:23:51.125Z,13.96
2022-10-12T17:26:53.953Z,13.93
2022-10-12T17:29:56.055Z,13.82
2022-10-12T17:32:57.560Z,13.78
2022-10-12T17:35:59.076Z,13.73
2022-10-12T17:39:00.908Z,13.65
2022-10-12T17:42:02.589Z,13.60
2022-10-12T17:45:04.726Z,13.54
2022-10-12T17:48:06.445Z,13.55
2022-10-12T17:51:12.105Z,13.59
2022-10-12T17:54:15.540Z,13.69
2022-10-12T17:57:17.312Z,13.80
2022-10-12T18:00:19.076Z,13.90
2022-10-12T18:03:25.529Z,13.91
2022-10-12T18:06:29.030Z,14.02
2022-10-12T18:09:31.078Z,14.02
2022-10-12T18:12:32.884Z,14.10
2022-10-12T18:15:34.428Z,14.14
2022-10-12T18:18:36.885Z,14.08
2022-10-12T18:21:39.062Z,14.14
2022-10-12T18:24:40.788Z,14.17
2022-10-12T18:27:42.897Z,14.22
2022-10-12T18:30:50.296Z,14.22
2022-10-12T18:33:53.625Z,14.21
2022-10-12T18:36:55.153Z,14.13
2022-10-12T18:39:56.640Z,14.15
2022-10-12T18:42:58.112Z,14.22
2022-10-12T18:45:59.615Z,14.29
2022-10-12T18:49:04.922Z,14.34
2022-10-12T18:52:06.529Z,14.34
2022-10-12T18:55:08.405Z,14.32
2022-10-12T18:58:09.939Z,14.29
2022-10-12T19:01:14.813Z,14.25
2022-10-12T19:04:16.684Z,14.20
2022-10-12T19:07:18.493Z,14.11
2022-10-12T19:10:20.185Z,14.08
2022-10-12T19:13:21.708Z,14.03
2022-10-12T19:16:23.707Z,14.04
2022-10-12T19:19:25.342Z,14.04
2022-10-12T19:22:27.136Z,14.01
2022-10-12T19:25:28.579Z,13.95
2022-10-12T19:28:30.251Z,13.87
2022-10-12T19:31:37.041Z,13.82
2022-10-12T19:34:38.599Z,13.82
2022-10-12T19:37:40.145Z,13.77
2022-10-12T19:40:42.915Z,13.79
2022-10-12T19:43:44.528Z,13.74
2022-10-12T19:46:48.518Z,13.83
2022-10-12T19:49:49.985Z,13.83
2022-10-12T19:52:51.846Z,13.89
2022-10-12T19:55:58.789Z,13.93
2022-10-12T19:59:00.381Z,13.98
2022-10-12T20:02:01.883Z,13.99
2022-10-12T20:05:03.565Z,14.02
2022-10-12T20:08:05.201Z,14.03
2022-10-12T20:11:07.946Z,14.03
2022-10-12T20:14:10.540Z,14.02
2022-10-12T20:17:12.071Z,14.04
2022-10-12T20:20:13.591Z,14.05
2022-10-12T20:23:16.075Z,14.03
2022-10-12T20:26:24.595Z,14.02
2022-10-12T20:29:26.120Z,14.05
2022-10-12T20:32:27.657Z,14.05
2022-10-12T20:35:29.533Z,14.00
2022-10-12T20:38:31.052Z,14.02
2022-10-12T20:41:32.765Z,13.98
2022-10-12T20:44:34.279Z,14.00
2022-10-12T20:47:36.012Z,13.99
2022-10-12T20:50:38.069Z,13.99
2022-10-12T20:53:39.525Z,14.00
2022-10-12T20:56:42.537Z,13.98
2022-10-12T20:59:45.568Z,13.98
2022-10-12T21:02:47.063Z,13.96
2022-10-12T21:05:48.537Z,13.95
2022-10-12T21:08:51.967Z,13.98
2022-10-12T21:11:54.117Z,14.01
2022-10-12T21:14:55.604Z,14.01
2022-10-12T21:17:57.102Z,13.98
2022-10-12T21:21:05.480Z,13.95
2022-10-12T21:24:08.177Z,13.93
2022-10-12T21:27:09.753Z,13.92
2022-10-12T21:30:11.588Z,13.96
2022-10-12T21:33:15.068Z,14.00
2022-10-12T21:36:26.293Z,13.99
2022-10-12T21:39:27.823Z,14.02
2022-10-12T21:42:29.336Z,14.03
2022-10-12T21:45:30.828Z,14.04
2022-10-12T21:48:33.159Z,13.99
2022-10-12T21:51:36.627Z,13.89
2022-10-12T21:54:40.165Z,13.82
2022-10-12T21:57:44.493Z,13.83
2022-10-12T22:00:46.359Z,13.79
2022-10-12T22:03:53.963Z,13.87
2022-10-12T22:07:11.725Z,13.86
2022-10-12T22:10:21.518Z,13.68
2022-10-12T22:13:30.128Z,13.79
2022-10-12T22:16:34.497Z,13.77
2022-10-12T22:19:35.981Z,13.84
2022-10-12T22:22:37.463Z,13.82
2022-10-12T22:25:38.940Z,13.67
2022-10-12T22:28:40.552Z,13.64
2022-10-12T22:31:42.347Z,13.73
2022-10-12T22:34:44.495Z,13.79
2022-10-12T22:37:45.987Z,13.82
2022-10-12T22:41:02.592Z,13.85
2022-10-12T22:44:04.234Z,13.85
2022-10-12T22:47:05.709Z,13.81
2022-10-12T22:50:07.549Z,13.76
2022-10-12T22:53:08.998Z,13.70
2022-10-12T22:56:16.197Z,13.63
2022-10-12T22:59:17.785Z,13.54
2022-10-12T23:02:19.787Z,13.44
2022-10-12T23:05:21.907Z,13.22
2022-10-12T23:08:23.521Z,13.19
2022-10-12T23:11:27.378Z,13.09
2022-10-12T23:14:29.009Z,12.99
2022-10-12T23:17:30.602Z,12.88
2022-10-12T23:20:32.036Z,12.74
2022-10-12T23:23:38.163Z,12.56
2022-10-12T23:26:39.710Z,12.48
2022-10-12T23:29:41.414Z,12.44
2022-10-12T23:32:43.220Z,12.41
2022-10-12T23:35:44.712Z,12.37
2022-10-12T23:38:46.311Z,12.32
2022-10-12T23:41:50.857Z,12.21
2022-10-12T23:44:52.368Z,12.14
2022-10-12T23:47:53.851Z,11.98
2022-10-12T23:50:55.922Z,11.90
2022-10-12T23:53:57.628Z,11.87
2022-10-12T23:56:59.229Z,11.82
